Time;durP1;ratioP1;P1;durP2;ratioP2;P2;SDS_P1;SDS_P2;PMS_P1;PMS_P2;Temp;Humidity;BMP_temperature;BMP_pressure;BME280_temperature;BME280_humidity;BME280_pressure;Samples;Min_cycle;Max_cycle;Signal;HPM_P1;HPM_P2
2024/01/04 00:00:51;;;;;;;;;;;10.70;99.90;;;;;;5119148;28;19912;-73
2024/01/04 00:03:19;;;;;;;;;;;10.70;99.90;;;;;;5118729;28;19910;-73
2024/01/04 00:05:45;;;;;;;;;;;10.70;99.90;;;;;;5117680;28;20299;-74
2024/01/04 00:08:11;;;;;;;;;;;10.60;99.90;;;;;;5117418;28;19908;-72
2024/01/04 00:10:36;;;;;;;;;;;10.60;99.90;;;;;;5118870;28;19971;-72
2024/01/04 00:13:02;;;;;;;;;;;10.60;99.90;;;;;;5118685;28;20049;-73
2024/01/04 00:15:27;;;;;;;;;;;10.70;99.90;;;;;;5112307;28;19979;-73
2024/01/04 00:17:53;;;;;;;;;;;10.60;99.90;;;;;;5113843;28;19931;-74
2024/01/04 00:20:18;;;;;;;;;;;10.60;99.90;;;;;;5117817;28;19912;-73
2024/01/04 00:22:44;;;;;;;;;;;10.50;99.90;;;;;;5117087;28;19903;-72
2024/01/04 00:25:09;;;;;;;;;;;10.50;99.90;;;;;;5117393;28;20373;-73
2024/01/04 00:27:35;;;;;;;;;;;10.50;99.90;;;;;;5118720;28;20363;-74
2024/01/04 00:30:01;;;;;;;;;;;10.50;99.90;;;;;;5118759;28;20451;-74
2024/01/04 00:32:26;;;;;;;;;;;10.40;99.90;;;;;;5116887;28;19959;-73
2024/01/04 00:34:52;;;;;;;;;;;10.40;99.90;;;;;;5117591;28;19907;-74
2024/01/04 00:37:17;;;;;;;;;;;10.50;99.90;;;;;;5116998;28;19912;-74
2024/01/04 00:39:43;;;;;;;;;;;10.50;99.90;;;;;;5116949;28;19998;-73
2024/01/04 00:42:08;;;;;;;;;;;10.50;99.90;;;;;;5117010;28;19967;-74
2024/01/04 00:44:34;;;;;;;;;;;10.40;99.90;;;;;;5116815;28;20366;-73
2024/01/04 00:46:59;;;;;;;;;;;10.50;99.90;;;;;;5116539;28;20404;-73
2024/01/04 00:49:25;;;;;;;;;;;10.50;99.90;;;;;;5116811;28;19904;-72
2024/01/04 00:51:50;;;;;;;;;;;10.50;99.90;;;;;;5118131;28;19904;-73
2024/01/04 00:54:16;;;;;;;;;;;10.50;99.90;;;;;;5108329;28;20388;-73
2024/01/04 00:56:41;;;;;;;;;;;10.50;99.90;;;;;;5112003;28;19920;-73
2024/01/04 00:59:07;;;;;;;;;;;10.50;99.90;;;;;;5110604;28;19911;-74
2024/01/04 01:01:33;;;;;;;;;;;10.50;99.90;;;;;;5117138;28;19911;-73
2024/01/04 01:03:58;;;;;;;;;;;10.40;99.90;;;;;;5116800;28;19911;-73
2024/01/04 01:06:24;;;;;;;;;;;10.40;99.90;;;;;;5117652;28;20389;-73
2024/01/04 01:08:50;;;;;;;;;;;10.40;99.90;;;;;;5116584;28;20010;-74
2024/01/04 01:11:15;;;;;;;;;;;10.30;99.90;;;;;;5117672;28;19910;-72
2024/01/04 01:13:41;;;;;;;;;;;10.40;99.90;;;;;;5116257;28;19903;-73
2024/01/04 01:16:08;;;;;;;;;;;10.40;99.90;;;;;;5113879;28;19904;-73
2024/01/04 01:18:34;;;;;;;;;;;10.40;99.90;;;;;;5117784;28;19908;-72
2024/01/04 01:20:59;;;;;;;;;;;10.40;99.90;;;;;;5116630;28;19907;-73
2024/01/04 01:23:25;;;;;;;;;;;10.40;99.90;;;;;;5116092;28;19904;-73
2024/01/04 01:25:50;;;;;;;;;;;10.40;99.90;;;;;;5117298;28;19904;-73
2024/01/04 01:28:16;;;;;;;;;;;10.40;99.90;;;;;;5117414;28;19904;-73
2024/01/04 01:30:41;;;;;;;;;;;10.40;99.90;;;;;;5117313;28;19903;-73
2024/01/04 01:33:07;;;;;;;;;;;10.30;99.90;;;;;;5111913;28;20439;-73
2024/01/04 01:35:32;;;;;;;;;;;10.30;99.90;;;;;;5117467;28;19940;-73
2024/01/04 01:37:58;;;;;;;;;;;10.20;99.90;;;;;;5116825;28;20049;-75
2024/01/04 01:40:24;;;;;;;;;;;10.20;99.90;;;;;;5114941;28;19911;-73
2024/01/04 01:42:49;;;;;;;;;;;10.20;99.90;;;;;;5115917;28;19908;-73
2024/01/04 01:45:15;;;;;;;;;;;10.20;99.90;;;;;;5117077;28;19910;-75
2024/01/04 01:47:41;;;;;;;;;;;10.10;99.90;;;;;;5117216;27;20003;-74
2024/01/04 01:50:09;;;;;;;;;;;10.10;99.90;;;;;;5116819;28;19907;-73
2024/01/04 01:52:36;;;;;;;;;;;10.00;99.90;;;;;;5116834;28;19956;-74
2024/01/04 01:55:02;;;;;;;;;;;9.90;99.90;;;;;;5116646;27;20295;-74
2024/01/04 01:57:31;;;;;;;;;;;9.70;99.90;;;;;;5117102;28;19976;-74
2024/01/04 01:59:57;;;;;;;;;;;9.40;99.90;;;;;;5116668;28;20466;-74
2024/01/04 02:02:22;;;;;;;;;;;9.20;99.90;;;;;;5115782;28;19947;-73
2024/01/04 02:04:48;;;;;;;;;;;9.00;99.90;;;;;;5116485;28;19997;-74
2024/01/04 02:07:13;;;;;;;;;;;8.80;99.90;;;;;;5116672;28;19914;-74
2024/01/04 02:09:39;;;;;;;;;;;8.70;99.90;;;;;;5115310;28;19956;-74
2024/01/04 02:12:05;;;;;;;;;;;8.60;99.90;;;;;;5116639;28;19904;-74
2024/01/04 02:14:31;;;;;;;;;;;8.60;99.90;;;;;;5115059;28;19908;-74
2024/01/04 02:16:57;;;;;;;;;;;8.50;99.90;;;;;;5112610;28;20003;-74
2024/01/04 02:19:23;;;;;;;;;;;8.60;99.90;;;;;;5109516;28;19939;-74
2024/01/04 02:21:49;;;;;;;;;;;8.70;99.90;;;;;;5111400;28;19912;-75
2024/01/04 02:24:14;;;;;;;;;;;9.10;99.90;;;;;;5115230;28;19919;-75
2024/01/04 02:26:39;;;;;;;;;;;9.20;99.90;;;;;;5116687;28;19904;-75
2024/01/04 02:29:05;;;;;;;;;;;9.30;99.90;;;;;;5116437;28;19904;-74
2024/01/04 02:31:30;;;;;;;;;;;9.40;99.90;;;;;;5114095;28;19915;-73
2024/01/04 02:33:56;;;;;;;;;;;9.50;99.90;;;;;;5113265;28;19903;-73
2024/01/04 02:36:22;;;;;;;;;;;9.60;99.90;;;;;;5114897;28;19903;-74
2024/01/04 02:38:47;;;;;;;;;;;9.60;99.90;;;;;;5116337;28;20688;-74
2024/01/04 02:41:13;;;;;;;;;;;9.70;99.90;;;;;;5112265;28;19907;-74
2024/01/04 02:43:38;;;;;;;;;;;9.70;99.90;;;;;;5116862;28;20377;-75
2024/01/04 02:46:04;;;;;;;;;;;9.70;99.90;;;;;;5116499;28;19907;-74
2024/01/04 02:48:29;;;;;;;;;;;9.60;99.90;;;;;;5116047;28;20465;-74
2024/01/04 02:50:55;;;;;;;;;;;9.60;99.90;;;;;;5116424;28;19972;-74
2024/01/04 02:53:20;;;;;;;;;;;9.50;99.90;;;;;;5114412;28;19953;-74
2024/01/04 02:55:46;;;;;;;;;;;9.40;99.90;;;;;;5116184;28;19923;-75
2024/01/04 02:58:11;;;;;;;;;;;9.20;99.90;;;;;;5116333;28;19980;-75
2024/01/04 03:00:37;;;;;;;;;;;8.90;99.90;;;;;;5114797;28;20036;-75
2024/01/04 03:03:02;;;;;;;;;;;8.70;99.90;;;;;;5105790;28;19969;-74
2024/01/04 03:05:28;;;;;;;;;;;8.60;99.90;;;;;;5114977;28;19955;-74
2024/01/04 03:07:53;;;;;;;;;;;8.40;99.90;;;;;;5114780;28;19903;-74
2024/01/04 03:10:19;;;;;;;;;;;8.30;99.90;;;;;;5116239;28;19910;-74
2024/01/04 03:12:44;;;;;;;;;;;8.20;99.90;;;;;;5101173;28;19908;-73
2024/01/04 03:15:10;;;;;;;;;;;8.10;99.90;;;;;;5113560;28;19908;-74
2024/01/04 03:17:36;;;;;;;;;;;8.00;99.90;;;;;;5115883;28;19994;-74
2024/01/04 03:20:01;;;;;;;;;;;7.90;99.90;;;;;;5120373;28;19912;-74
2024/01/04 03:22:27;;;;;;;;;;;7.70;99.90;;;;;;5118163;28;19914;-74
2024/01/04 03:24:52;;;;;;;;;;;7.60;99.90;;;;;;5108740;28;20447;-74
2024/01/04 03:27:18;;;;;;;;;;;7.70;99.90;;;;;;5116344;28;20435;-75
2024/01/04 03:29:43;;;;;;;;;;;7.60;99.90;;;;;;5119890;28;20375;-74
2024/01/04 03:32:09;;;;;;;;;;;7.50;99.90;;;;;;5114259;28;19953;-74
2024/01/04 03:34:35;;;;;;;;;;;7.50;99.90;;;;;;5119998;28;19903;-74
2024/01/04 03:37:00;;;;;;;;;;;7.40;99.90;;;;;;5119527;28;19910;-74
2024/01/04 03:39:25;;;;;;;;;;;7.40;99.90;;;;;;5120070;28;20414;-74
2024/01/04 03:41:51;;;;;;;;;;;7.40;99.90;;;;;;5118167;28;20296;-74
2024/01/04 03:44:17;;;;;;;;;;;7.40;99.90;;;;;;5119784;27;20414;-74
2024/01/04 03:46:42;;;;;;;;;;;7.40;99.90;;;;;;5119440;28;19904;-74
2024/01/04 03:49:08;;;;;;;;;;;7.50;99.90;;;;;;5118142;28;19934;-74
2024/01/04 03:51:33;;;;;;;;;;;7.50;99.90;;;;;;5119044;28;19908;-74
2024/01/04 03:53:59;;;;;;;;;;;7.40;99.90;;;;;;5118311;28;20014;-74
2024/01/04 03:56:25;;;;;;;;;;;7.40;99.90;;;;;;5117772;28;19922;-74
2024/01/04 03:58:51;;;;;;;;;;;7.30;99.90;;;;;;5119318;28;19990;-75
2024/01/04 04:01:17;;;;;;;;;;;7.20;99.90;;;;;;5117544;28;19918;-75
2024/01/04 04:03:42;;;;;;;;;;;7.10;99.90;;;;;;5104220;28;19904;-74
2024/01/04 04:06:08;;;;;;;;;;;7.10;99.90;;;;;;5116912;28;19907;-74
2024/01/04 04:08:34;;;;;;;;;;;7.00;99.90;;;;;;5113688;28;19908;-74
2024/01/04 04:10:59;;;;;;;;;;;6.90;99.90;;;;;;5111302;28;20307;-74
2024/01/04 04:13:25;;;;;;;;;;;6.90;99.90;;;;;;5119152;28;20044;-74
2024/01/04 04:15:51;;;;;;;;;;;6.80;99.90;;;;;;5108618;28;19910;-74
2024/01/04 04:18:16;;;;;;;;;;;6.70;99.90;;;;;;5118813;28;20218;-75
2024/01/04 04:20:42;;;;;;;;;;;6.60;99.90;;;;;;5118948;28;19912;-75
2024/01/04 04:23:07;;;;;;;;;;;6.60;99.90;;;;;;5118061;27;19957;-75
2024/01/04 04:25:36;;;;;;;;;;;6.60;99.90;;;;;;5117340;28;19935;-75
2024/01/04 04:28:02;;;;;;;;;;;6.50;99.90;;;;;;5118689;28;19925;-75
2024/01/04 04:30:28;;;;;;;;;;;6.40;99.90;;;;;;5118605;28;20542;-75
2024/01/04 04:32:54;;;;;;;;;;;6.40;99.90;;;;;;5111367;28;19957;-75
2024/01/04 04:35:19;;;;;;;;;;;6.40;99.90;;;;;;5118248;28;19908;-74
2024/01/04 04:37:45;;;;;;;;;;;6.40;99.90;;;;;;5116758;28;19930;-75
2024/01/04 04:40:11;;;;;;;;;;;6.30;99.90;;;;;;5118487;28;20059;-75
2024/01/04 04:42:36;;;;;;;;;;;6.30;99.90;;;;;;5117631;28;19904;-75
2024/01/04 04:45:02;;;;;;;;;;;6.30;99.90;;;;;;5118166;28;20014;-74
2024/01/04 04:47:27;;;;;;;;;;;6.30;99.90;;;;;;5116310;28;19914;-74
2024/01/04 04:49:53;;;;;;;;;;;6.20;99.90;;;;;;5116495;28;19914;-74
2024/01/04 04:52:18;;;;;;;;;;;6.20;99.90;;;;;;5117924;28;19903;-74
2024/01/04 04:54:44;;;;;;;;;;;6.30;99.90;;;;;;5118160;28;19903;-74
2024/01/04 04:57:09;;;;;;;;;;;6.20;99.90;;;;;;5118115;28;19915;-75
2024/01/04 04:59:35;;;;;;;;;;;6.20;99.90;;;;;;5114639;28;19918;-74
2024/01/04 05:02:01;;;;;;;;;;;6.20;99.90;;;;;;5112011;28;19914;-75
2024/01/04 05:04:26;;;;;;;;;;;6.20;99.90;;;;;;5118384;28;19904;-75
2024/01/04 05:06:52;;;;;;;;;;;6.10;99.90;;;;;;5116340;28;19965;-75
2024/01/04 05:09:17;;;;;;;;;;;6.10;99.90;;;;;;5117800;28;19915;-75
2024/01/04 05:11:43;;;;;;;;;;;6.00;99.90;;;;;;5118118;28;19954;-75
2024/01/04 05:14:08;;;;;;;;;;;6.00;99.90;;;;;;5116349;27;19915;-75
2024/01/04 05:16:34;;;;;;;;;;;6.00;99.90;;;;;;5111450;28;19904;-74
2024/01/04 05:18:59;;;;;;;;;;;6.00;99.90;;;;;;5117836;27;19903;-75
2024/01/04 05:21:31;;;;;;;;;;;5.90;99.90;;;;;;5116076;28;19956;-74
2024/01/04 05:23:56;;;;;;;;;;;5.90;99.90;;;;;;5107283;28;19908;-75
2024/01/04 05:26:22;;;;;;;;;;;5.80;99.90;;;;;;5116671;28;19911;-74
2024/01/04 05:28:48;;;;;;;;;;;5.80;99.90;;;;;;5116159;28;19915;-74
2024/01/04 05:31:15;;;;;;;;;;;5.80;99.90;;;;;;5116738;28;20446;-74
2024/01/04 05:33:43;;;;;;;;;;;5.80;99.90;;;;;;5112000;28;19904;-74
2024/01/04 05:36:08;;;;;;;;;;;5.80;99.90;;;;;;5115874;28;20294;-74
2024/01/04 05:38:34;;;;;;;;;;;5.80;99.90;;;;;;5115454;28;19907;-74
2024/01/04 05:40:59;;;;;;;;;;;5.80;99.90;;;;;;5115892;28;19911;-74
2024/01/04 05:43:27;;;;;;;;;;;5.90;99.90;;;;;;5115762;28;19903;-75
2024/01/04 05:45:52;;;;;;;;;;;5.90;99.90;;;;;;5117010;27;19915;-76
2024/01/04 05:48:18;;;;;;;;;;;5.80;99.90;;;;;;5115778;28;19907;-74
2024/01/04 05:50:43;;;;;;;;;;;5.80;99.90;;;;;;5115780;28;19904;-75
2024/01/04 05:53:09;;;;;;;;;;;5.80;99.90;;;;;;5117236;28;19915;-75
2024/01/04 05:55:34;;;;;;;;;;;5.80;99.90;;;;;;5117039;28;19919;-75
2024/01/04 05:58:00;;;;;;;;;;;5.80;99.90;;;;;;5116975;28;19948;-74
2024/01/04 06:00:26;;;;;;;;;;;5.80;99.90;;;;;;5115619;28;19952;-75
2024/01/04 06:02:52;;;;;;;;;;;5.60;99.90;;;;;;5115513;28;19910;-75
2024/01/04 06:05:17;;;;;;;;;;;5.60;99.90;;;;;;5115571;28;20402;-74
2024/01/04 06:07:43;;;;;;;;;;;5.60;99.90;;;;;;5116217;28;19979;-74
2024/01/04 06:10:08;;;;;;;;;;;5.70;99.90;;;;;;5100346;28;19916;-74
2024/01/04 06:12:34;;;;;;;;;;;5.70;99.90;;;;;;5102375;28;19904;-74
2024/01/04 06:15:01;;;;;;;;;;;5.60;99.90;;;;;;5116041;28;19908;-74
2024/01/04 06:17:26;;;;;;;;;;;5.70;99.90;;;;;;5116938;27;20006;-75
2024/01/04 06:19:51;;;;;;;;;;;5.60;99.90;;;;;;5116577;28;19988;-75
2024/01/04 06:22:17;;;;;;;;;;;5.70;99.90;;;;;;5116489;28;19911;-74
2024/01/04 06:24:43;;;;;;;;;;;5.70;99.90;;;;;;5116250;28;19929;-75
2024/01/04 06:27:08;;;;;;;;;;;5.80;99.90;;;;;;5114959;28;19950;-75
2024/01/04 06:29:34;;;;;;;;;;;5.90;99.90;;;;;;5115254;28;19904;-75
2024/01/04 06:31:59;;;;;;;;;;;5.90;99.90;;;;;;5099791;28;19904;-75
2024/01/04 06:34:25;;;;;;;;;;;5.70;99.90;;;;;;5091691;28;19957;-76
2024/01/04 06:36:50;;;;;;;;;;;5.60;99.90;;;;;;5089672;28;19908;-75
2024/01/04 06:39:16;;;;;;;;;;;5.50;99.90;;;;;;5099089;28;20259;-75
2024/01/04 06:41:43;;;;;;;;;;;5.40;99.90;;;;;;5091647;28;19934;-74
2024/01/04 06:44:09;;;;;;;;;;;5.30;99.90;;;;;;5091581;28;20374;-75
2024/01/04 06:46:34;;;;;;;;;;;5.30;99.90;;;;;;5097194;28;19942;-76
2024/01/04 06:49:00;;;;;;;;;;;5.30;99.90;;;;;;5092200;28;19915;-75
2024/01/04 06:51:25;;;;;;;;;;;5.20;99.90;;;;;;5092494;28;19915;-75
2024/01/04 06:53:51;;;;;;;;;;;5.10;99.90;;;;;;5095315;28;19908;-75
2024/01/04 06:56:18;;;;;;;;;;;5.10;99.90;;;;;;5095647;28;19920;-76
2024/01/04 06:58:44;;;;;;;;;;;5.10;99.90;;;;;;5095641;28;20443;-75
2024/01/04 07:01:10;;;;;;;;;;;5.00;99.90;;;;;;5095662;28;19912;-75
2024/01/04 07:03:35;;;;;;;;;;;5.00;99.90;;;;;;5105721;28;20295;-75
2024/01/04 07:06:02;;;;;;;;;;;4.90;99.90;;;;;;5095378;28;20672;-74
2024/01/04 07:08:28;;;;;;;;;;;4.90;99.90;;;;;;5093842;28;19908;-75
2024/01/04 07:10:53;;;;;;;;;;;4.80;99.90;;;;;;5101941;28;19915;-75
2024/01/04 07:13:19;;;;;;;;;;;4.80;99.90;;;;;;5095065;28;19908;-74
2024/01/04 07:15:44;;;;;;;;;;;4.80;99.90;;;;;;5106619;28;19951;-75
2024/01/04 07:18:10;;;;;;;;;;;4.90;99.90;;;;;;5094948;28;19955;-76
2024/01/04 07:20:36;;;;;;;;;;;4.90;99.90;;;;;;5100809;28;19912;-77
2024/01/04 07:23:02;;;;;;;;;;;5.00;99.90;;;;;;5095690;28;19908;-77
2024/01/04 07:25:28;;;;;;;;;;;4.90;99.90;;;;;;5096033;28;19922;-77
2024/01/04 07:27:53;;;;;;;;;;;4.90;99.90;;;;;;5095586;28;19908;-77
2024/01/04 07:30:19;;;;;;;;;;;4.90;99.90;;;;;;5100876;28;19935;-77
2024/01/04 07:32:45;;;;;;;;;;;4.80;99.90;;;;;;5099176;28;19915;-77
2024/01/04 07:35:12;;;;;;;;;;;4.80;99.90;;;;;;5095130;28;19908;-77
2024/01/04 07:37:38;;;;;;;;;;;4.80;99.90;;;;;;5103684;28;19912;-77
2024/01/04 07:40:04;;;;;;;;;;;4.80;99.90;;;;;;5094821;28;20033;-77
2024/01/04 07:42:30;;;;;;;;;;;4.80;99.90;;;;;;5103065;28;19959;-79
2024/01/04 07:44:55;;;;;;;;;;;4.80;99.90;;;;;;5098302;28;20399;-77
2024/01/04 07:47:21;;;;;;;;;;;4.80;99.90;;;;;;5100227;28;20337;-77
2024/01/04 07:49:46;;;;;;;;;;;4.80;99.90;;;;;;5108894;28;20530;-77
2024/01/04 07:52:12;;;;;;;;;;;4.80;99.90;;;;;;5109187;28;20288;-77
2024/01/04 07:54:37;;;;;;;;;;;4.80;99.90;;;;;;5101634;27;20379;-77
2024/01/04 07:57:03;;;;;;;;;;;4.80;99.90;;;;;;5106198;28;19979;-77
2024/01/04 07:59:29;;;;;;;;;;;4.70;99.90;;;;;;5103158;28;19903;-77
2024/01/04 08:01:54;;;;;;;;;;;4.80;99.90;;;;;;5100363;28;19999;-77
2024/01/04 08:04:21;;;;;;;;;;;4.80;99.90;;;;;;5101487;28;19910;-77
2024/01/04 08:06:50;;;;;;;;;;;4.90;99.90;;;;;;5111916;27;20716;-77
2024/01/04 08:09:15;;;;;;;;;;;4.90;99.90;;;;;;5103061;28;19911;-77
2024/01/04 08:11:41;;;;;;;;;;;5.00;99.90;;;;;;5099295;28;19915;-77
2024/01/04 08:14:06;;;;;;;;;;;5.10;99.90;;;;;;5094585;28;20419;-77
2024/01/04 08:16:32;;;;;;;;;;;5.20;99.90;;;;;;5095731;28;19919;-77
2024/01/04 08:18:57;;;;;;;;;;;5.30;99.90;;;;;;5105468;28;19908;-77
2024/01/04 08:21:23;;;;;;;;;;;5.40;99.90;;;;;;5107484;28;19919;-77
2024/01/04 08:23:50;;;;;;;;;;;5.50;99.90;;;;;;5102147;28;19919;-77
2024/01/04 08:26:15;;;;;;;;;;;5.60;99.90;;;;;;5110199;28;20395;-77
2024/01/04 08:28:41;;;;;;;;;;;5.80;99.90;;;;;;5104972;28;19911;-77
2024/01/04 08:31:07;;;;;;;;;;;5.90;99.90;;;;;;5106675;28;19914;-77
2024/01/04 08:33:32;;;;;;;;;;;6.00;99.90;;;;;;5106134;28;19907;-77
2024/01/04 08:35:58;;;;;;;;;;;6.00;99.90;;;;;;5104492;28;19918;-77
2024/01/04 08:38:23;;;;;;;;;;;6.10;99.90;;;;;;5105877;28;19963;-79
2024/01/04 08:40:49;;;;;;;;;;;6.20;99.90;;;;;;5112942;28;19962;-76
2024/01/04 08:43:15;;;;;;;;;;;6.30;99.90;;;;;;5111855;28;19947;-78
2024/01/04 08:45:40;;;;;;;;;;;6.40;99.90;;;;;;5101252;28;20300;-77
2024/01/04 08:48:06;;;;;;;;;;;6.50;99.90;;;;;;5100416;28;19908;-78
2024/01/04 08:50:32;;;;;;;;;;;6.50;99.90;;;;;;5105971;28;19907;-77
2024/01/04 08:52:57;;;;;;;;;;;6.50;99.90;;;;;;5111235;28;20700;-77
2024/01/04 08:55:23;;;;;;;;;;;6.70;99.90;;;;;;5112715;28;21467;-77
2024/01/04 08:57:48;;;;;;;;;;;6.80;99.90;;;;;;5114180;28;20310;-77
2024/01/04 09:00:14;;;;;;;;;;;6.90;99.90;;;;;;5111317;28;19912;-77
2024/01/04 09:02:40;;;;;;;;;;;7.00;99.90;;;;;;5110697;28;19912;-77
2024/01/04 09:05:06;;;;;;;;;;;7.10;99.90;;;;;;5115521;28;19983;-78
2024/01/04 09:07:31;;;;;;;;;;;7.20;99.90;;;;;;5113123;28;20316;-78
2024/01/04 09:09:57;;;;;;;;;;;7.30;99.90;;;;;;5111429;28;19911;-78
2024/01/04 09:12:23;;;;;;;;;;;7.40;99.90;;;;;;5112528;28;19911;-78
2024/01/04 09:14:48;;;;;;;;;;;7.50;99.90;;;;;;5112225;28;19919;-78
2024/01/04 09:17:14;;;;;;;;;;;7.60;99.90;;;;;;5113750;28;19908;-78
2024/01/04 09:19:40;;;;;;;;;;;7.70;99.90;;;;;;5109013;28;20375;-78
2024/01/04 09:22:07;;;;;;;;;;;8.00;99.90;;;;;;5108324;27;20444;-78
2024/01/04 09:24:32;;;;;;;;;;;8.10;99.90;;;;;;5113496;28;19910;-78
2024/01/04 09:26:58;;;;;;;;;;;8.20;99.90;;;;;;5106491;28;20276;-78
2024/01/04 09:29:24;;;;;;;;;;;8.20;99.90;;;;;;5114383;28;20411;-78
2024/01/04 09:31:49;;;;;;;;;;;8.30;99.90;;;;;;5113247;28;20002;-77
2024/01/04 09:34:15;;;;;;;;;;;8.30;99.90;;;;;;5111293;28;19907;-78
2024/01/04 09:36:41;;;;;;;;;;;8.30;99.90;;;;;;5109900;28;19912;-78
2024/01/04 09:39:07;;;;;;;;;;;8.30;99.90;;;;;;5114721;28;20337;-77
2024/01/04 09:41:33;;;;;;;;;;;8.20;99.90;;;;;;5105142;28;20344;-76
2024/01/04 09:44:06;;;;;;;;;;;8.20;99.90;;;;;;5113910;28;19904;-77
2024/01/04 09:46:35;;;;;;;;;;;8.20;99.90;;;;;;5106736;28;19903;-78
2024/01/04 09:49:01;;;;;;;;;;;8.30;99.90;;;;;;5110434;28;19907;-76
2024/01/04 09:51:28;;;;;;;;;;;8.40;99.90;;;;;;5113140;28;19911;-77
2024/01/04 09:53:54;;;;;;;;;;;8.50;99.90;;;;;;5108783;28;19998;-75
2024/01/04 09:56:20;;;;;;;;;;;8.60;99.90;;;;;;5111736;28;19922;-76
2024/01/04 09:58:48;;;;;;;;;;;8.80;99.90;;;;;;5110252;28;19918;-76
2024/01/04 10:01:17;;;;;;;;;;;8.90;99.90;;;;;;5106357;28;19908;-78
2024/01/04 10:03:46;;;;;;;;;;;9.00;99.90;;;;;;5108090;28;19920;-76
2024/01/04 10:06:12;;;;;;;;;;;9.10;99.90;;;;;;5113072;28;19942;-78
2024/01/04 10:08:40;;;;;;;;;;;9.20;99.90;;;;;;5106942;28;19910;-78
2024/01/04 10:11:12;;;;;;;;;;;9.20;99.90;;;;;;5115269;28;19904;-77
2024/01/04 10:13:38;;;;;;;;;;;9.20;99.90;;;;;;5107205;28;19904;-80
2024/01/04 10:16:05;;;;;;;;;;;9.20;99.90;;;;;;5114817;28;19904;-76
2024/01/04 10:18:33;;;;;;;;;;;9.20;99.90;;;;;;5113452;28;20011;-79
2024/01/04 10:21:03;;;;;;;;;;;9.30;99.90;;;;;;5108419;28;20021;-76
2024/01/04 10:23:28;;;;;;;;;;;9.40;99.90;;;;;;5114260;28;19910;-78
2024/01/04 10:26:11;;;;;;;;;;;9.50;99.90;;;;;;5114365;28;19903;-77
2024/01/04 10:28:38;;;;;;;;;;;9.60;99.90;;;;;;5112305;28;19907;-77
2024/01/04 10:31:05;;;;;;;;;;;9.80;99.90;;;;;;5115359;28;19904;-78
2024/01/04 10:33:31;;;;;;;;;;;10.00;99.90;;;;;;5109311;28;19916;-78
2024/01/04 10:36:06;;;;;;;;;;;10.20;99.90;;;;;;5111442;28;19912;-77
2024/01/04 10:38:31;;;;;;;;;;;10.40;99.90;;;;;;5112350;28;20375;-77
2024/01/04 10:41:04;;;;;;;;;;;10.60;99.90;;;;;;5109454;28;19974;-77
2024/01/04 10:43:33;;;;;;;;;;;10.80;99.90;;;;;;5108131;28;19995;-78
2024/01/04 10:46:02;;;;;;;;;;;10.90;99.90;;;;;;5108566;28;19926;-78
2024/01/04 10:48:28;;;;;;;;;;;11.00;99.90;;;;;;5111043;28;20366;-77
2024/01/04 10:50:56;;;;;;;;;;;11.00;99.90;;;;;;5112621;28;19938;-78
2024/01/04 10:53:22;;;;;;;;;;;11.00;99.90;;;;;;5107250;28;19961;-77
2024/01/04 10:55:48;;;;;;;;;;;11.00;99.90;;;;;;5107266;28;19920;-77
2024/01/04 10:58:14;;;;;;;;;;;11.10;99.90;;;;;;5110137;28;19943;-77
2024/01/04 11:00:40;;;;;;;;;;;11.10;99.90;;;;;;5111455;28;20403;-76
2024/01/04 11:03:06;;;;;;;;;;;11.10;99.90;;;;;;5112918;28;19904;-75
2024/01/04 11:05:33;;;;;;;;;;;11.20;99.90;;;;;;5110938;28;19923;-77
2024/01/04 11:07:59;;;;;;;;;;;11.20;99.90;;;;;;5110635;28;19919;-77
2024/01/04 11:10:26;;;;;;;;;;;11.30;99.90;;;;;;5109401;28;19904;-78
2024/01/04 11:12:52;;;;;;;;;;;11.40;99.90;;;;;;5114438;28;19903;-78
2024/01/04 11:15:18;;;;;;;;;;;11.60;99.90;;;;;;5106600;28;19908;-77
2024/01/04 11:17:49;;;;;;;;;;;11.60;99.90;;;;;;5112387;28;19930;-77
2024/01/04 11:20:23;;;;;;;;;;;11.70;99.90;;;;;;5110064;28;20003;-78
2024/01/04 11:22:56;;;;;;;;;;;11.80;99.90;;;;;;5110440;28;20025;-80
2024/01/04 11:25:37;;;;;;;;;;;11.90;99.90;;;;;;5109822;28;19911;-77
2024/01/04 11:28:04;;;;;;;;;;;12.10;99.90;;;;;;5110430;28;19908;-77
2024/01/04 11:30:31;;;;;;;;;;;12.20;99.90;;;;;;5109393;28;19953;-76
2024/01/04 11:32:56;;;;;;;;;;;12.20;99.90;;;;;;5099988;28;19927;-80
2024/01/04 11:35:22;;;;;;;;;;;12.30;99.90;;;;;;5100688;28;20332;-76
2024/01/04 11:37:51;;;;;;;;;;;12.30;99.90;;;;;;5103878;28;20327;-76
2024/01/04 11:40:29;;;;;;;;;;;12.30;99.90;;;;;;5103560;28;20271;-76
2024/01/04 11:42:55;;;;;;;;;;;12.30;99.90;;;;;;5104044;28;20508;-75
2024/01/04 11:45:22;;;;;;;;;;;12.30;99.90;;;;;;5108476;28;19908;-78
2024/01/04 11:47:50;;;;;;;;;;;12.30;99.90;;;;;;5107987;28;20450;-78
2024/01/04 11:50:17;;;;;;;;;;;12.30;99.90;;;;;;5107594;28;19914;-75
2024/01/04 11:52:45;;;;;;;;;;;12.30;99.90;;;;;;5112401;28;19908;-78
2024/01/04 11:55:12;;;;;;;;;;;12.30;99.90;;;;;;5103586;28;19927;-75
2024/01/04 11:57:39;;;;;;;;;;;12.40;99.90;;;;;;5107691;28;19956;-77
2024/01/04 12:00:14;;;;;;;;;;;12.30;99.90;;;;;;5108046;28;19994;-76
2024/01/04 12:02:40;;;;;;;;;;;12.20;99.90;;;;;;5104811;28;19918;-77
2024/01/04 12:05:06;;;;;;;;;;;12.20;99.90;;;;;;5105269;28;19908;-77
2024/01/04 12:07:33;;;;;;;;;;;12.10;99.90;;;;;;5106136;28;19908;-77
2024/01/04 12:09:59;;;;;;;;;;;12.10;99.90;;;;;;5106838;28;20446;-78
2024/01/04 12:12:25;;;;;;;;;;;12.20;99.90;;;;;;5109583;28;19915;-74
2024/01/04 12:14:50;;;;;;;;;;;12.20;99.90;;;;;;5107380;28;19908;-76
2024/01/04 12:17:16;;;;;;;;;;;12.30;99.90;;;;;;5105932;28;20321;-75
2024/01/04 12:19:41;;;;;;;;;;;12.40;99.90;;;;;;5107992;28;19912;-76
2024/01/04 12:22:07;;;;;;;;;;;12.50;99.90;;;;;;5105540;28;19908;-75
2024/01/04 12:24:32;;;;;;;;;;;12.60;99.90;;;;;;5108195;28;19908;-75
2024/01/04 12:26:58;;;;;;;;;;;12.60;99.90;;;;;;5107193;28;19912;-76
2024/01/04 12:29:24;;;;;;;;;;;12.70;99.90;;;;;;5107742;28;19918;-76
2024/01/04 12:31:51;;;;;;;;;;;12.70;99.90;;;;;;5103342;28;19912;-76
2024/01/04 12:34:16;;;;;;;;;;;12.80;99.90;;;;;;5110658;28;19907;-77
2024/01/04 12:36:42;;;;;;;;;;;12.80;99.90;;;;;;5101252;28;19918;-77
2024/01/04 12:39:09;;;;;;;;;;;12.80;99.90;;;;;;5110159;28;20403;-76
2024/01/04 12:41:37;;;;;;;;;;;12.90;99.90;;;;;;5108939;28;20390;-77
2024/01/04 12:44:04;;;;;;;;;;;12.90;99.90;;;;;;5104792;28;19904;-77
2024/01/04 12:46:30;;;;;;;;;;;12.90;99.90;;;;;;5104324;28;19908;-76
2024/01/04 12:49:09;;;;;;;;;;;12.90;99.90;;;;;;5104364;28;19912;-78
2024/01/04 12:51:39;;;;;;;;;;;12.90;99.90;;;;;;5108368;28;19954;-78
2024/01/04 12:54:05;;;;;;;;;;;12.90;99.90;;;;;;5104235;28;20291;-77
2024/01/04 12:56:31;;;;;;;;;;;12.90;99.90;;;;;;5104867;28;20355;-76
2024/01/04 12:59:01;;;;;;;;;;;12.80;99.90;;;;;;5104491;28;20451;-77
2024/01/04 13:01:27;;;;;;;;;;;12.70;99.90;;;;;;5095737;28;19941;-76
2024/01/04 13:03:53;;;;;;;;;;;12.70;99.90;;;;;;5099630;28;20344;-76
2024/01/04 13:06:18;;;;;;;;;;;12.70;99.90;;;;;;5092477;28;19931;-77
2024/01/04 13:08:45;;;;;;;;;;;12.80;99.90;;;;;;5091722;28;19910;-76
2024/01/04 13:11:10;;;;;;;;;;;12.80;99.90;;;;;;5091486;28;20354;-76
2024/01/04 13:13:39;;;;;;;;;;;12.90;99.90;;;;;;5094051;28;19908;-76
2024/01/04 13:16:05;;;;;;;;;;;13.00;99.90;;;;;;5100643;28;19951;-75
2024/01/04 13:18:30;;;;;;;;;;;13.00;99.90;;;;;;5090993;28;20461;-78
2024/01/04 13:20:56;;;;;;;;;;;13.00;99.90;;;;;;5105834;28;20426;-76
2024/01/04 13:23:21;;;;;;;;;;;13.10;99.90;;;;;;5092770;28;20035;-74
2024/01/04 13:25:48;;;;;;;;;;;13.10;99.90;;;;;;5091752;28;19915;-76
2024/01/04 13:28:14;;;;;;;;;;;13.10;99.90;;;;;;5105417;28;19961;-75
2024/01/04 13:30:39;;;;;;;;;;;13.10;99.90;;;;;;5099309;28;19911;-76
2024/01/04 13:33:05;;;;;;;;;;;13.10;99.90;;;;;;5092849;28;19908;-76
2024/01/04 13:35:30;;;;;;;;;;;13.10;99.90;;;;;;5090933;28;20449;-75
2024/01/04 13:37:56;;;;;;;;;;;13.10;99.90;;;;;;5090843;28;19962;-76
2024/01/04 13:40:23;;;;;;;;;;;13.10;99.90;;;;;;5098759;28;20444;-74
2024/01/04 13:42:49;;;;;;;;;;;13.10;99.90;;;;;;5092988;28;20391;-75
2024/01/04 13:45:16;;;;;;;;;;;13.10;99.90;;;;;;5092379;28;19935;-74
2024/01/04 13:47:41;;;;;;;;;;;13.20;99.90;;;;;;5094470;28;19908;-74
2024/01/04 13:50:07;;;;;;;;;;;13.20;99.90;;;;;;5092409;28;19919;-76
2024/01/04 13:52:33;;;;;;;;;;;13.20;99.90;;;;;;5091751;28;20829;-76
2024/01/04 13:54:59;;;;;;;;;;;13.30;99.90;;;;;;5092102;28;19957;-74
2024/01/04 13:57:24;;;;;;;;;;;13.30;99.90;;;;;;5091813;28;19920;-74
2024/01/04 13:59:50;;;;;;;;;;;13.20;99.90;;;;;;5091854;28;19912;-75
2024/01/04 14:02:16;;;;;;;;;;;13.20;99.90;;;;;;5094487;28;19911;-75
2024/01/04 14:04:42;;;;;;;;;;;13.20;99.90;;;;;;5102463;28;20691;-75
2024/01/04 14:07:08;;;;;;;;;;;13.10;99.90;;;;;;5095170;28;19935;-75
2024/01/04 14:09:34;;;;;;;;;;;13.10;99.90;;;;;;5109320;27;20374;-74
2024/01/04 14:12:00;;;;;;;;;;;13.00;99.90;;;;;;5100271;28;19915;-74
2024/01/04 14:14:25;;;;;;;;;;;13.00;99.90;;;;;;5108798;28;19907;-76
2024/01/04 14:16:51;;;;;;;;;;;13.00;99.90;;;;;;5098461;28;19912;-77